sensor_id;sensor_type;location;lat;lon;timestamp;P1;durP1;ratioP1;P2;durP2;ratioP2
22439;SDS011;11387;51.612;7.210;2022-07-09T00:02:40;11.98;;;4.45;;
22439;SDS011;11387;51.612;7.210;2022-07-09T00:05:43;7.85;;;4.45;;
22439;SDS011;11387;51.612;7.210;2022-07-09T00:08:45;12.38;;;4.72;;
22439;SDS011;11387;51.612;7.210;2022-07-09T00:11:49;9.25;;;4.30;;
22439;SDS011;11387;51.612;7.210;2022-07-09T00:14:53;10.10;;;4.60;;
22439;SDS011;11387;51.612;7.210;2022-07-09T00:17:56;13.02;;;4.60;;
22439;SDS011;11387;51.612;7.210;2022-07-09T00:20:59;8.98;;;5.20;;
22439;SDS011;11387;51.612;7.210;2022-07-09T00:24:02;9.07;;;4.90;;
22439;SDS011;11387;51.612;7.210;2022-07-09T00:27:06;11.18;;;4.47;;
22439;SDS011;11387;51.612;7.210;2022-07-09T00:30:09;9.60;;;4.95;;
22439;SDS011;11387;51.612;7.210;2022-07-09T00:33:12;9.77;;;5.00;;
22439;SDS011;11387;51.612;7.210;2022-07-09T00:36:15;12.90;;;4.72;;
22439;SDS011;11387;51.612;7.210;2022-07-09T00:39:17;9.88;;;4.97;;
22439;SDS011;11387;51.612;7.210;2022-07-09T00:42:21;7.82;;;4.65;;
22439;SDS011;11387;51.612;7.210;2022-07-09T00:45:26;9.68;;;5.03;;
22439;SDS011;11387;51.612;7.210;2022-07-09T00:48:29;11.40;;;5.32;;
22439;SDS011;11387;51.612;7.210;2022-07-09T00:51:32;10.07;;;5.70;;
22439;SDS011;11387;51.612;7.210;2022-07-09T00:54:35;12.02;;;5.68;;
22439;SDS011;11387;51.612;7.210;2022-07-09T00:57:40;11.63;;;5.40;;
22439;SDS011;11387;51.612;7.210;2022-07-09T01:00:43;9.60;;;5.55;;
22439;SDS011;11387;51.612;7.210;2022-07-09T01:03:46;12.55;;;5.80;;
22439;SDS011;11387;51.612;7.210;2022-07-09T01:06:48;12.38;;;5.75;;
22439;SDS011;11387;51.612;7.210;2022-07-09T01:09:51;9.23;;;6.40;;
22439;SDS011;11387;51.612;7.210;2022-07-09T01:12:55;13.73;;;6.65;;
22439;SDS011;11387;51.612;7.210;2022-07-09T01:15:58;10.38;;;6.32;;
22439;SDS011;11387;51.612;7.210;2022-07-09T01:19:01;11.27;;;5.90;;
22439;SDS011;11387;51.612;7.210;2022-07-09T01:22:05;13.27;;;6.72;;
22439;SDS011;11387;51.612;7.210;2022-07-09T01:25:08;8.88;;;6.07;;
22439;SDS011;11387;51.612;7.210;2022-07-09T01:28:12;15.60;;;7.78;;
22439;SDS011;11387;51.612;7.210;2022-07-09T01:31:15;15.68;;;7.75;;
22439;SDS011;11387;51.612;7.210;2022-07-09T01:34:18;13.77;;;6.97;;
22439;SDS011;11387;51.612;7.210;2022-07-09T01:37:22;10.93;;;6.20;;
22439;SDS011;11387;51.612;7.210;2022-07-09T01:40:25;12.20;;;7.00;;
22439;SDS011;11387;51.612;7.210;2022-07-09T01:43:28;10.52;;;6.25;;
22439;SDS011;11387;51.612;7.210;2022-07-09T01:46:32;12.73;;;7.32;;
22439;SDS011;11387;51.612;7.210;2022-07-09T01:49:35;11.93;;;7.00;;
22439;SDS011;11387;51.612;7.210;2022-07-09T01:52:39;15.68;;;6.75;;
22439;SDS011;11387;51.612;7.210;2022-07-09T01:55:41;13.27;;;6.25;;
22439;SDS011;11387;51.612;7.210;2022-07-09T01:58:44;18.23;;;6.80;;
22439;SDS011;11387;51.612;7.210;2022-07-09T02:01:47;12.30;;;6.45;;
22439;SDS011;11387;51.612;7.210;2022-07-09T02:04:50;16.92;;;7.13;;
22439;SDS011;11387;51.612;7.210;2022-07-09T02:07:54;16.00;;;7.00;;
22439;SDS011;11387;51.612;7.210;2022-07-09T02:10:57;13.80;;;7.07;;
22439;SDS011;11387;51.612;7.210;2022-07-09T02:14:00;13.32;;;7.18;;
22439;SDS011;11387;51.612;7.210;2022-07-09T02:17:04;13.37;;;8.23;;
22439;SDS011;11387;51.612;7.210;2022-07-09T02:20:07;12.07;;;7.05;;
22439;SDS011;11387;51.612;7.210;2022-07-09T02:23:11;17.20;;;9.10;;
22439;SDS011;11387;51.612;7.210;2022-07-09T02:26:14;15.52;;;9.18;;
22439;SDS011;11387;51.612;7.210;2022-07-09T02:29:17;17.02;;;8.18;;
22439;SDS011;11387;51.612;7.210;2022-07-09T02:32:20;14.38;;;8.43;;
22439;SDS011;11387;51.612;7.210;2022-07-09T02:35:22;13.05;;;8.02;;
22439;SDS011;11387;51.612;7.210;2022-07-09T02:38:26;18.77;;;7.93;;
22439;SDS011;11387;51.612;7.210;2022-07-09T02:41:29;17.90;;;8.68;;
22439;SDS011;11387;51.612;7.210;2022-07-09T02:44:32;14.55;;;7.82;;
22439;SDS011;11387;51.612;7.210;2022-07-09T02:47:34;15.30;;;8.65;;
22439;SDS011;11387;51.612;7.210;2022-07-09T02:50:37;15.02;;;9.05;;
22439;SDS011;11387;51.612;7.210;2022-07-09T02:53:42;11.18;;;7.93;;
22439;SDS011;11387;51.612;7.210;2022-07-09T02:56:45;17.67;;;8.60;;
22439;SDS011;11387;51.612;7.210;2022-07-09T02:59:48;19.42;;;9.05;;
22439;SDS011;11387;51.612;7.210;2022-07-09T03:02:50;17.33;;;8.10;;
22439;SDS011;11387;51.612;7.210;2022-07-09T03:05:53;20.55;;;9.02;;
22439;SDS011;11387;51.612;7.210;2022-07-09T03:08:57;16.92;;;7.47;;
22439;SDS011;11387;51.612;7.210;2022-07-09T03:12:00;15.68;;;7.90;;
22439;SDS011;11387;51.612;7.210;2022-07-09T03:15:03;14.32;;;9.00;;
22439;SDS011;11387;51.612;7.210;2022-07-09T03:18:06;14.10;;;8.45;;
22439;SDS011;11387;51.612;7.210;2022-07-09T03:21:10;15.15;;;8.30;;
22439;SDS011;11387;51.612;7.210;2022-07-09T03:24:14;13.40;;;7.63;;
22439;SDS011;11387;51.612;7.210;2022-07-09T03:27:16;15.80;;;8.40;;
22439;SDS011;11387;51.612;7.210;2022-07-09T03:30:19;12.55;;;7.85;;
22439;SDS011;11387;51.612;7.210;2022-07-09T03:33:22;15.75;;;8.20;;
22439;SDS011;11387;51.612;7.210;2022-07-09T03:36:25;11.10;;;8.07;;
22439;SDS011;11387;51.612;7.210;2022-07-09T03:39:29;18.00;;;8.27;;
22439;SDS011;11387;51.612;7.210;2022-07-09T03:42:31;13.95;;;7.93;;
22439;SDS011;11387;51.612;7.210;2022-07-09T03:45:34;15.63;;;8.45;;
22439;SDS011;11387;51.612;7.210;2022-07-09T03:48:37;14.13;;;8.13;;
22439;SDS011;11387;51.612;7.210;2022-07-09T03:51:40;16.33;;;8.65;;
22439;SDS011;11387;51.612;7.210;2022-07-09T03:55:05;17.70;;;8.43;;
22439;SDS011;11387;51.612;7.210;2022-07-09T04:01:10;15.57;;;7.57;;
22439;SDS011;11387;51.612;7.210;2022-07-09T04:04:13;13.45;;;8.07;;
22439;SDS011;11387;51.612;7.210;2022-07-09T04:07:16;15.20;;;7.38;;
22439;SDS011;11387;51.612;7.210;2022-07-09T04:10:20;17.10;;;7.53;;
22439;SDS011;11387;51.612;7.210;2022-07-09T04:13:23;14.50;;;8.07;;
22439;SDS011;11387;51.612;7.210;2022-07-09T04:16:25;18.50;;;7.82;;
22439;SDS011;11387;51.612;7.210;2022-07-09T04:19:28;17.42;;;7.72;;
22439;SDS011;11387;51.612;7.210;2022-07-09T04:22:31;15.90;;;7.57;;
22439;SDS011;11387;51.612;7.210;2022-07-09T04:25:36;18.30;;;6.88;;
22439;SDS011;11387;51.612;7.210;2022-07-09T04:28:38;17.15;;;7.13;;
22439;SDS011;11387;51.612;7.210;2022-07-09T04:31:41;16.67;;;7.47;;
22439;SDS011;11387;51.612;7.210;2022-07-09T04:34:44;14.63;;;7.40;;
22439;SDS011;11387;51.612;7.210;2022-07-09T04:37:47;10.93;;;6.75;;
22439;SDS011;11387;51.612;7.210;2022-07-09T04:40:51;12.55;;;6.57;;
22439;SDS011;11387;51.612;7.210;2022-07-09T04:43:54;15.90;;;6.93;;
22439;SDS011;11387;51.612;7.210;2022-07-09T04:46:56;16.55;;;7.38;;
22439;SDS011;11387;51.612;7.210;2022-07-09T04:49:59;14.75;;;8.23;;
22439;SDS011;11387;51.612;7.210;2022-07-09T04:53:02;11.57;;;7.05;;
22439;SDS011;11387;51.612;7.210;2022-07-09T04:56:06;18.33;;;8.27;;
22439;SDS011;11387;51.612;7.210;2022-07-09T04:59:10;11.75;;;7.50;;
22439;SDS011;11387;51.612;7.210;2022-07-09T05:02:12;11.55;;;7.22;;
22439;SDS011;11387;51.612;7.210;2022-07-09T05:05:15;19.67;;;7.13;;
22439;SDS011;11387;51.612;7.210;2022-07-09T05:08:18;13.00;;;6.82;;
22439;SDS011;11387;51.612;7.210;2022-07-09T05:11:22;16.20;;;6.90;;
22439;SDS011;11387;51.612;7.210;2022-07-09T05:14:25;10.20;;;5.90;;
22439;SDS011;11387;51.612;7.210;2022-07-09T05:17:28;14.18;;;6.70;;
22439;SDS011;11387;51.612;7.210;2022-07-09T05:20:35;14.80;;;6.40;;
22439;SDS011;11387;51.612;7.210;2022-07-09T05:23:38;10.98;;;6.75;;
22439;SDS011;11387;51.612;7.210;2022-07-09T05:26:42;19.02;;;6.85;;
22439;SDS011;11387;51.612;7.210;2022-07-09T05:29:44;12.88;;;6.38;;
22439;SDS011;11387;51.612;7.210;2022-07-09T05:32:47;13.98;;;7.38;;
22439;SDS011;11387;51.612;7.210;2022-07-09T05:35:50;13.65;;;6.50;;
22439;SDS011;11387;51.612;7.210;2022-07-09T05:38:53;14.73;;;6.95;;
22439;SDS011;11387;51.612;7.210;2022-07-09T05:41:57;11.10;;;6.03;;
22439;SDS011;11387;51.612;7.210;2022-07-09T05:45:00;16.15;;;6.65;;
22439;SDS011;11387;51.612;7.210;2022-07-09T05:48:03;10.85;;;6.20;;
22439;SDS011;11387;51.612;7.210;2022-07-09T05:51:07;11.38;;;5.68;;
22439;SDS011;11387;51.612;7.210;2022-07-09T05:54:09;9.38;;;5.88;;
22439;SDS011;11387;51.612;7.210;2022-07-09T05:57:13;8.82;;;4.32;;
22439;SDS011;11387;51.612;7.210;2022-07-09T06:00:16;9.98;;;4.63;;
22439;SDS011;11387;51.612;7.210;2022-07-09T06:03:19;10.90;;;4.75;;
22439;SDS011;11387;51.612;7.210;2022-07-09T06:06:22;10.52;;;4.78;;
22439;SDS011;11387;51.612;7.210;2022-07-09T06:09:24;15.10;;;5.55;;
22439;SDS011;11387;51.612;7.210;2022-07-09T06:12:28;12.40;;;6.65;;
22439;SDS011;11387;51.612;7.210;2022-07-09T06:15:31;12.27;;;5.50;;
22439;SDS011;11387;51.612;7.210;2022-07-09T06:18:34;11.65;;;4.93;;
22439;SDS011;11387;51.612;7.210;2022-07-09T06:21:40;11.57;;;4.90;;
22439;SDS011;11387;51.612;7.210;2022-07-09T06:24:42;11.32;;;5.43;;
22439;SDS011;11387;51.612;7.210;2022-07-09T06:27:47;11.63;;;5.07;;
22439;SDS011;11387;51.612;7.210;2022-07-09T06:30:49;7.28;;;4.55;;
22439;SDS011;11387;51.612;7.210;2022-07-09T06:33:52;10.90;;;6.68;;
22439;SDS011;11387;51.612;7.210;2022-07-09T06:37:01;11.18;;;6.07;;
22439;SDS011;11387;51.612;7.210;2022-07-09T06:40:04;8.70;;;5.32;;
22439;SDS011;11387;51.612;7.210;2022-07-09T06:43:08;10.60;;;5.13;;
22439;SDS011;11387;51.612;7.210;2022-07-09T06:46:20;5.93;;;4.25;;
22439;SDS011;11387;51.612;7.210;2022-07-09T06:49:29;9.95;;;4.50;;
22439;SDS011;11387;51.612;7.210;2022-07-09T06:53:05;7.60;;;3.80;;
22439;SDS011;11387;51.612;7.210;2022-07-09T06:56:07;5.60;;;3.50;;
22439;SDS011;11387;51.612;7.210;2022-07-09T06:59:12;5.55;;;3.40;;
22439;SDS011;11387;51.612;7.210;2022-07-09T07:02:18;7.00;;;3.22;;
22439;SDS011;11387;51.612;7.210;2022-07-09T07:05:47;5.25;;;2.88;;
22439;SDS011;11387;51.612;7.210;2022-07-09T07:08:50;6.05;;;3.30;;
22439;SDS011;11387;51.612;7.210;2022-07-09T07:11:53;6.32;;;3.10;;
22439;SDS011;11387;51.612;7.210;2022-07-09T07:14:57;3.95;;;2.58;;
22439;SDS011;11387;51.612;7.210;2022-07-09T07:21:03;4.72;;;2.67;;
22439;SDS011;11387;51.612;7.210;2022-07-09T07:24:06;5.10;;;2.78;;
22439;SDS011;11387;51.612;7.210;2022-07-09T07:27:08;3.67;;;2.03;;
22439;SDS011;11387;51.612;7.210;2022-07-09T07:30:12;4.63;;;2.70;;
22439;SDS011;11387;51.612;7.210;2022-07-09T07:33:15;3.25;;;2.63;;
22439;SDS011;11387;51.612;7.210;2022-07-09T07:36:18;3.45;;;2.20;;
22439;SDS011;11387;51.612;7.210;2022-07-09T07:39:20;3.08;;;1.90;;
22439;SDS011;11387;51.612;7.210;2022-07-09T07:42:26;4.13;;;2.25;;
22439;SDS011;11387;51.612;7.210;2022-07-09T07:45:30;3.60;;;1.90;;
22439;SDS011;11387;51.612;7.210;2022-07-09T07:48:33;6.97;;;2.05;;
22439;SDS011;11387;51.612;7.210;2022-07-09T07:51:38;3.80;;;1.80;;
22439;SDS011;11387;51.612;7.210;2022-07-09T07:54:40;3.90;;;2.00;;
22439;SDS011;11387;51.612;7.210;2022-07-09T07:57:46;3.15;;;2.13;;
22439;SDS011;11387;51.612;7.210;2022-07-09T08:00:50;4.57;;;2.25;;
22439;SDS011;11387;51.612;7.210;2022-07-09T08:03:53;7.05;;;2.13;;
22439;SDS011;11387;51.612;7.210;2022-07-09T08:06:56;3.78;;;1.50;;
22439;SDS011;11387;51.612;7.210;2022-07-09T08:09:58;4.05;;;1.50;;
22439;SDS011;11387;51.612;7.210;2022-07-09T08:13:01;2.67;;;1.40;;
22439;SDS011;11387;51.612;7.210;2022-07-09T08:16:06;4.35;;;1.73;;
22439;SDS011;11387;51.612;7.210;2022-07-09T08:19:09;2.95;;;1.63;;
22439;SDS011;11387;51.612;7.210;2022-07-09T08:22:11;3.25;;;1.77;;
22439;SDS011;11387;51.612;7.210;2022-07-09T08:25:14;5.28;;;1.80;;
22439;SDS011;11387;51.612;7.210;2022-07-09T08:28:17;4.45;;;1.55;;
22439;SDS011;11387;51.612;7.210;2022-07-09T08:31:22;3.03;;;1.33;;
22439;SDS011;11387;51.612;7.210;2022-07-09T08:34:25;2.88;;;1.05;;
22439;SDS011;11387;51.612;7.210;2022-07-09T08:37:28;3.88;;;1.20;;
22439;SDS011;11387;51.612;7.210;2022-07-09T08:40:30;3.40;;;1.20;;
22439;SDS011;11387;51.612;7.210;2022-07-09T08:43:34;2.22;;;1.27;;
22439;SDS011;11387;51.612;7.210;2022-07-09T08:46:38;2.35;;;1.08;;
22439;SDS011;11387;51.612;7.210;2022-07-09T08:49:42;1.60;;;0.80;;
22439;SDS011;11387;51.612;7.210;2022-07-09T08:52:45;4.50;;;1.10;;
22439;SDS011;11387;51.612;7.210;2022-07-09T08:55:49;2.33;;;1.23;;
22439;SDS011;11387;51.612;7.210;2022-07-09T08:58:51;2.33;;;1.27;;
22439;SDS011;11387;51.612;7.210;2022-07-09T09:01:56;2.78;;;1.23;;
22439;SDS011;11387;51.612;7.210;2022-07-09T09:04:58;3.38;;;1.05;;
22439;SDS011;11387;51.612;7.210;2022-07-09T09:08:15;2.08;;;0.88;;
22439;SDS011;11387;51.612;7.210;2022-07-09T09:11:19;2.17;;;1.00;;
22439;SDS011;11387;51.612;7.210;2022-07-09T09:14:23;2.25;;;0.90;;
22439;SDS011;11387;51.612;7.210;2022-07-09T09:17:28;3.80;;;1.00;;
22439;SDS011;11387;51.612;7.210;2022-07-09T09:23:41;1.70;;;0.90;;
22439;SDS011;11387;51.612;7.210;2022-07-09T09:26:43;1.25;;;0.50;;
22439;SDS011;11387;51.612;7.210;2022-07-09T09:29:49;1.38;;;0.60;;
22439;SDS011;11387;51.612;7.210;2022-07-09T09:32:56;1.70;;;0.85;;
22439;SDS011;11387;51.612;7.210;2022-07-09T09:35:59;2.33;;;0.80;;
22439;SDS011;11387;51.612;7.210;2022-07-09T09:39:12;3.60;;;1.08;;
22439;SDS011;11387;51.612;7.210;2022-07-09T09:42:15;3.35;;;0.90;;
22439;SDS011;11387;51.612;7.210;2022-07-09T09:45:18;4.28;;;0.93;;
22439;SDS011;11387;51.612;7.210;2022-07-09T09:48:22;2.05;;;0.82;;
22439;SDS011;11387;51.612;7.210;2022-07-09T09:51:25;2.10;;;0.80;;
22439;SDS011;11387;51.612;7.210;2022-07-09T09:54:31;2.20;;;0.70;;
22439;SDS011;11387;51.612;7.210;2022-07-09T09:57:34;3.50;;;1.03;;
22439;SDS011;11387;51.612;7.210;2022-07-09T10:00:38;2.17;;;1.17;;
22439;SDS011;11387;51.612;7.210;2022-07-09T10:03:42;2.08;;;1.40;;
22439;SDS011;11387;51.612;7.210;2022-07-09T10:06:45;3.03;;;1.38;;
22439;SDS011;11387;51.612;7.210;2022-07-09T10:09:55;3.17;;;1.40;;
22439;SDS011;11387;51.612;7.210;2022-07-09T10:12:58;3.42;;;1.60;;
22439;SDS011;11387;51.612;7.210;2022-07-09T10:16:01;3.20;;;1.30;;
22439;SDS011;11387;51.612;7.210;2022-07-09T10:19:05;2.45;;;1.20;;
22439;SDS011;11387;51.612;7.210;2022-07-09T10:22:08;2.95;;;1.25;;
22439;SDS011;11387;51.612;7.210;2022-07-09T10:25:12;2.55;;;1.25;;
22439;SDS011;11387;51.612;7.210;2022-07-09T10:28:15;2.63;;;1.60;;
22439;SDS011;11387;51.612;7.210;2022-07-09T10:31:18;2.53;;;1.77;;
22439;SDS011;11387;51.612;7.210;2022-07-09T10:37:42;1.55;;;1.13;;
22439;SDS011;11387;51.612;7.210;2022-07-09T10:40:45;2.65;;;1.30;;
22439;SDS011;11387;51.612;7.210;2022-07-09T10:43:49;3.88;;;1.35;;
22439;SDS011;11387;51.612;7.210;2022-07-09T10:46:55;2.65;;;1.20;;
22439;SDS011;11387;51.612;7.210;2022-07-09T10:50:01;2.42;;;1.00;;
22439;SDS011;11387;51.612;7.210;2022-07-09T10:53:06;2.40;;;1.50;;
22439;SDS011;11387;51.612;7.210;2022-07-09T10:59:15;4.72;;;1.30;;
22439;SDS011;11387;51.612;7.210;2022-07-09T11:02:18;1.80;;;1.30;;
22439;SDS011;11387;51.612;7.210;2022-07-09T11:05:21;3.92;;;1.80;;
22439;SDS011;11387;51.612;7.210;2022-07-09T11:08:26;5.97;;;2.53;;
22439;SDS011;11387;51.612;7.210;2022-07-09T11:11:28;5.95;;;1.60;;
22439;SDS011;11387;51.612;7.210;2022-07-09T11:14:31;2.30;;;1.40;;
22439;SDS011;11387;51.612;7.210;2022-07-09T11:17:34;2.70;;;1.60;;
22439;SDS011;11387;51.612;7.210;2022-07-09T11:20:37;3.42;;;0.98;;
22439;SDS011;11387;51.612;7.210;2022-07-09T11:23:41;2.50;;;1.10;;
22439;SDS011;11387;51.612;7.210;2022-07-09T11:26:49;3.30;;;1.10;;
22439;SDS011;11387;51.612;7.210;2022-07-09T11:29:52;4.03;;;1.23;;
22439;SDS011;11387;51.612;7.210;2022-07-09T11:32:55;2.30;;;0.93;;
22439;SDS011;11387;51.612;7.210;2022-07-09T11:35:58;3.10;;;1.20;;
22439;SDS011;11387;51.612;7.210;2022-07-09T11:39:02;3.67;;;1.63;;
22439;SDS011;11387;51.612;7.210;2022-07-09T11:42:05;2.42;;;1.40;;
22439;SDS011;11387;51.612;7.210;2022-07-09T11:45:08;1.92;;;1.35;;
22439;SDS011;11387;51.612;7.210;2022-07-09T11:48:11;2.72;;;1.42;;
22439;SDS011;11387;51.612;7.210;2022-07-09T11:51:14;4.40;;;1.35;;
22439;SDS011;11387;51.612;7.210;2022-07-09T11:54:29;2.63;;;1.40;;
22439;SDS011;11387;51.612;7.210;2022-07-09T11:57:33;3.28;;;1.30;;
22439;SDS011;11387;51.612;7.210;2022-07-09T12:00:39;4.78;;;2.05;;
22439;SDS011;11387;51.612;7.210;2022-07-09T12:03:46;3.50;;;1.90;;
22439;SDS011;11387;51.612;7.210;2022-07-09T12:06:49;3.33;;;2.00;;
22439;SDS011;11387;51.612;7.210;2022-07-09T12:10:00;3.57;;;1.77;;
22439;SDS011;11387;51.612;7.210;2022-07-09T12:13:04;3.35;;;2.00;;
22439;SDS011;11387;51.612;7.210;2022-07-09T12:16:07;3.63;;;2.00;;
22439;SDS011;11387;51.612;7.210;2022-07-09T12:19:10;5.40;;;2.20;;
22439;SDS011;11387;51.612;7.210;2022-07-09T12:22:13;3.85;;;2.30;;
22439;SDS011;11387;51.612;7.210;2022-07-09T12:25:17;3.53;;;2.15;;
22439;SDS011;11387;51.612;7.210;2022-07-09T12:28:19;6.18;;;2.10;;
22439;SDS011;11387;51.612;7.210;2022-07-09T12:31:22;10.40;;;2.58;;
22439;SDS011;11387;51.612;7.210;2022-07-09T12:34:25;5.18;;;1.98;;
22439;SDS011;11387;51.612;7.210;2022-07-09T12:37:27;3.58;;;1.88;;
22439;SDS011;11387;51.612;7.210;2022-07-09T12:40:31;3.45;;;1.95;;
22439;SDS011;11387;51.612;7.210;2022-07-09T12:43:34;3.97;;;2.67;;
22439;SDS011;11387;51.612;7.210;2022-07-09T12:46:37;7.50;;;3.20;;
22439;SDS011;11387;51.612;7.210;2022-07-09T12:49:40;10.25;;;4.35;;
22439;SDS011;11387;51.612;7.210;2022-07-09T12:52:42;10.25;;;4.85;;
22439;SDS011;11387;51.612;7.210;2022-07-09T12:55:46;9.60;;;5.25;;
22439;SDS011;11387;51.612;7.210;2022-07-09T12:59:03;12.85;;;6.57;;
22439;SDS011;11387;51.612;7.210;2022-07-09T13:02:06;11.38;;;6.93;;
22439;SDS011;11387;51.612;7.210;2022-07-09T13:05:09;14.60;;;9.05;;
22439;SDS011;11387;51.612;7.210;2022-07-09T13:08:13;14.75;;;8.88;;
22439;SDS011;11387;51.612;7.210;2022-07-09T13:11:23;14.38;;;8.82;;
22439;SDS011;11387;51.612;7.210;2022-07-09T13:14:26;12.93;;;8.25;;
22439;SDS011;11387;51.612;7.210;2022-07-09T13:17:28;13.60;;;9.05;;
22439;SDS011;11387;51.612;7.210;2022-07-09T13:20:33;14.13;;;8.13;;
22439;SDS011;11387;51.612;7.210;2022-07-09T13:23:46;14.00;;;9.35;;
22439;SDS011;11387;51.612;7.210;2022-07-09T13:26:50;14.20;;;9.50;;
22439;SDS011;11387;51.612;7.210;2022-07-09T13:29:53;13.23;;;9.32;;
22439;SDS011;11387;51.612;7.210;2022-07-09T13:32:57;15.55;;;9.10;;
22439;SDS011;11387;51.612;7.210;2022-07-09T13:36:00;10.50;;;6.70;;
22439;SDS011;11387;51.612;7.210;2022-07-09T13:39:03;10.13;;;6.22;;
22439;SDS011;11387;51.612;7.210;2022-07-09T13:42:07;7.03;;;4.70;;
22439;SDS011;11387;51.612;7.210;2022-07-09T13:45:10;7.07;;;3.58;;
22439;SDS011;11387;51.612;7.210;2022-07-09T13:48:12;9.18;;;4.93;;
22439;SDS011;11387;51.612;7.210;2022-07-09T13:51:15;6.88;;;4.65;;
22439;SDS011;11387;51.612;7.210;2022-07-09T13:54:18;5.60;;;4.20;;
22439;SDS011;11387;51.612;7.210;2022-07-09T13:57:22;5.68;;;3.33;;
22439;SDS011;11387;51.612;7.210;2022-07-09T14:03:27;5.72;;;3.10;;
22439;SDS011;11387;51.612;7.210;2022-07-09T14:06:30;2.60;;;1.95;;
22439;SDS011;11387;51.612;7.210;2022-07-09T14:09:49;3.53;;;1.33;;
22439;SDS011;11387;51.612;7.210;2022-07-09T14:12:53;1.55;;;1.25;;
22439;SDS011;11387;51.612;7.210;2022-07-09T14:18:58;1.88;;;0.70;;
22439;SDS011;11387;51.612;7.210;2022-07-09T14:22:01;3.53;;;1.00;;
22439;SDS011;11387;51.612;7.210;2022-07-09T14:25:04;1.42;;;1.00;;
22439;SDS011;11387;51.612;7.210;2022-07-09T14:28:08;2.60;;;0.80;;
22439;SDS011;11387;51.612;7.210;2022-07-09T14:34:13;3.70;;;1.15;;
22439;SDS011;11387;51.612;7.210;2022-07-09T14:37:17;2.50;;;1.80;;
22439;SDS011;11387;51.612;7.210;2022-07-09T14:40:20;1.77;;;0.93;;
22439;SDS011;11387;51.612;7.210;2022-07-09T14:43:24;2.28;;;0.88;;
22439;SDS011;11387;51.612;7.210;2022-07-09T14:46:28;1.45;;;0.90;;
22439;SDS011;11387;51.612;7.210;2022-07-09T14:49:31;2.45;;;0.82;;
22439;SDS011;11387;51.612;7.210;2022-07-09T14:52:34;2.47;;;0.80;;
22439;SDS011;11387;51.612;7.210;2022-07-09T14:55:37;2.47;;;1.10;;
22439;SDS011;11387;51.612;7.210;2022-07-09T14:58:41;1.88;;;0.90;;
22439;SDS011;11387;51.612;7.210;2022-07-09T15:01:44;2.53;;;0.80;;
22439;SDS011;11387;51.612;7.210;2022-07-09T15:04:47;3.25;;;0.70;;
22439;SDS011;11387;51.612;7.210;2022-07-09T15:07:50;1.95;;;0.88;;
22439;SDS011;11387;51.612;7.210;2022-07-09T15:10:52;1.75;;;1.00;;
22439;SDS011;11387;51.612;7.210;2022-07-09T15:13:57;2.55;;;1.08;;
22439;SDS011;11387;51.612;7.210;2022-07-09T15:16:59;4.55;;;2.60;;
22439;SDS011;11387;51.612;7.210;2022-07-09T15:20:04;2.35;;;1.30;;
22439;SDS011;11387;51.612;7.210;2022-07-09T15:23:07;1.75;;;0.68;;
22439;SDS011;11387;51.612;7.210;2022-07-09T15:26:09;3.25;;;0.88;;
22439;SDS011;11387;51.612;7.210;2022-07-09T15:29:14;2.80;;;1.40;;
22439;SDS011;11387;51.612;7.210;2022-07-09T15:32:16;2.55;;;1.15;;
22439;SDS011;11387;51.612;7.210;2022-07-09T15:35:19;2.08;;;1.20;;
22439;SDS011;11387;51.612;7.210;2022-07-09T15:38:22;2.80;;;0.88;;
22439;SDS011;11387;51.612;7.210;2022-07-09T15:41:24;3.03;;;1.70;;
22439;SDS011;11387;51.612;7.210;2022-07-09T15:44:29;3.67;;;1.38;;
22439;SDS011;11387;51.612;7.210;2022-07-09T15:50:40;3.13;;;1.30;;
22439;SDS011;11387;51.612;7.210;2022-07-09T15:53:43;1.33;;;0.70;;
22439;SDS011;11387;51.612;7.210;2022-07-09T15:56:45;2.22;;;1.00;;
22439;SDS011;11387;51.612;7.210;2022-07-09T15:59:49;2.55;;;0.75;;
22439;SDS011;11387;51.612;7.210;2022-07-09T16:02:52;8.20;;;2.92;;
22439;SDS011;11387;51.612;7.210;2022-07-09T16:05:56;3.85;;;2.22;;
22439;SDS011;11387;51.612;7.210;2022-07-09T16:09:06;3.13;;;1.85;;
22439;SDS011;11387;51.612;7.210;2022-07-09T16:12:09;5.30;;;2.95;;
22439;SDS011;11387;51.612;7.210;2022-07-09T16:15:30;3.13;;;1.77;;
22439;SDS011;11387;51.612;7.210;2022-07-09T16:18:33;5.65;;;1.85;;
22439;SDS011;11387;51.612;7.210;2022-07-09T16:21:36;6.88;;;2.92;;
22439;SDS011;11387;51.612;7.210;2022-07-09T16:24:39;2.17;;;0.98;;
22439;SDS011;11387;51.612;7.210;2022-07-09T16:27:41;3.50;;;1.23;;
22439;SDS011;11387;51.612;7.210;2022-07-09T16:30:47;2.13;;;0.90;;
22439;SDS011;11387;51.612;7.210;2022-07-09T16:33:49;6.53;;;1.70;;
22439;SDS011;11387;51.612;7.210;2022-07-09T16:36:52;3.15;;;1.30;;
22439;SDS011;11387;51.612;7.210;2022-07-09T16:39:55;6.45;;;0.90;;
22439;SDS011;11387;51.612;7.210;2022-07-09T16:42:57;2.65;;;0.95;;
22439;SDS011;11387;51.612;7.210;2022-07-09T16:46:01;4.05;;;1.20;;
22439;SDS011;11387;51.612;7.210;2022-07-09T16:49:10;4.50;;;1.35;;
22439;SDS011;11387;51.612;7.210;2022-07-09T16:52:13;4.65;;;1.30;;
22439;SDS011;11387;51.612;7.210;2022-07-09T16:55:16;6.50;;;1.45;;
22439;SDS011;11387;51.612;7.210;2022-07-09T16:58:18;4.95;;;1.38;;
22439;SDS011;11387;51.612;7.210;2022-07-09T17:01:22;4.70;;;1.42;;
22439;SDS011;11387;51.612;7.210;2022-07-09T17:04:25;5.63;;;1.65;;
22439;SDS011;11387;51.612;7.210;2022-07-09T17:07:27;4.82;;;1.38;;
22439;SDS011;11387;51.612;7.210;2022-07-09T17:10:30;4.68;;;1.50;;
22439;SDS011;11387;51.612;7.210;2022-07-09T17:13:33;5.97;;;1.17;;
22439;SDS011;11387;51.612;7.210;2022-07-09T17:16:37;8.40;;;3.47;;
22439;SDS011;11387;51.612;7.210;2022-07-09T17:19:39;2.47;;;1.20;;
22439;SDS011;11387;51.612;7.210;2022-07-09T17:22:43;5.68;;;1.38;;
22439;SDS011;11387;51.612;7.210;2022-07-09T17:25:45;9.35;;;1.88;;
22439;SDS011;11387;51.612;7.210;2022-07-09T17:28:48;3.90;;;1.30;;
22439;SDS011;11387;51.612;7.210;2022-07-09T17:31:52;8.27;;;1.90;;
22439;SDS011;11387;51.612;7.210;2022-07-09T17:34:55;5.50;;;1.27;;
22439;SDS011;11387;51.612;7.210;2022-07-09T17:37:57;6.75;;;1.50;;
22439;SDS011;11387;51.612;7.210;2022-07-09T17:41:00;2.58;;;1.17;;
22439;SDS011;11387;51.612;7.210;2022-07-09T17:44:03;7.03;;;2.28;;
22439;SDS011;11387;51.612;7.210;2022-07-09T17:47:07;3.63;;;1.58;;
22439;SDS011;11387;51.612;7.210;2022-07-09T17:50:14;5.22;;;1.10;;
22439;SDS011;11387;51.612;7.210;2022-07-09T17:53:16;2.28;;;1.50;;
22439;SDS011;11387;51.612;7.210;2022-07-09T17:56:19;7.90;;;1.33;;
22439;SDS011;11387;51.612;7.210;2022-07-09T17:59:22;3.85;;;0.98;;
22439;SDS011;11387;51.612;7.210;2022-07-09T18:02:26;4.15;;;1.25;;
22439;SDS011;11387;51.612;7.210;2022-07-09T18:05:29;9.10;;;1.17;;
22439;SDS011;11387;51.612;7.210;2022-07-09T18:08:31;4.70;;;1.10;;
22439;SDS011;11387;51.612;7.210;2022-07-09T18:11:34;2.95;;;1.25;;
22439;SDS011;11387;51.612;7.210;2022-07-09T18:14:37;4.30;;;1.23;;
22439;SDS011;11387;51.612;7.210;2022-07-09T18:17:41;2.00;;;0.90;;
22439;SDS011;11387;51.612;7.210;2022-07-09T18:20:44;4.35;;;0.93;;
22439;SDS011;11387;51.612;7.210;2022-07-09T18:23:47;4.63;;;1.20;;
22439;SDS011;11387;51.612;7.210;2022-07-09T18:26:50;4.82;;;1.23;;
22439;SDS011;11387;51.612;7.210;2022-07-09T18:29:53;4.13;;;1.00;;
22439;SDS011;11387;51.612;7.210;2022-07-09T18:33:07;3.70;;;0.70;;
22439;SDS011;11387;51.612;7.210;2022-07-09T18:36:11;3.40;;;1.40;;
22439;SDS011;11387;51.612;7.210;2022-07-09T18:39:15;11.75;;;1.40;;
22439;SDS011;11387;51.612;7.210;2022-07-09T18:42:18;6.38;;;1.45;;
22439;SDS011;11387;51.612;7.210;2022-07-09T18:45:20;3.38;;;1.17;;
22439;SDS011;11387;51.612;7.210;2022-07-09T18:48:24;4.40;;;1.35;;
22439;SDS011;11387;51.612;7.210;2022-07-09T18:51:27;5.80;;;2.40;;